Time,TemperatureF,DewpointF,PressureIn,WindDirection,WindDirectionDegrees,WindSpeedMPH,WindSpeedGustMPH,Humidity,HourlyPrecipIn,Conditions,Clouds,dailyrainin,SoftwareType,DateUTC
2013-10-23 00:02:00,47.6,41.4,30.02,East,79,0.0,0.0,79,0.00,,,0.00,VWS V14.01,2013-10-23 07:02:00,
2013-10-23 00:07:00,47.4,40.9,30.02,East,79,0.0,0.0,78,0.00,,,0.00,VWS V14.01,2013-10-23 07:07:00,
2013-10-23 00:12:00,47.1,40.6,30.02,East,79,0.0,0.0,78,0.00,,,0.00,VWS V14.01,2013-10-23 07:12:00,
2013-10-23 00:17:00,46.9,40.7,30.02,East,79,0.0,0.0,79,0.00,,,0.00,VWS V14.01,2013-10-23 07:17:00,
2013-10-23 00:22:00,46.6,40.5,30.02,East,79,0.0,0.0,79,0.00,,,0.00,VWS V14.01,2013-10-23 07:22:00,
2013-10-23 00:27:00,46.5,41.0,30.02,East,79,0.0,0.0,81,0.00,,,0.00,VWS V14.01,2013-10-23 07:27:00,
2013-10-23 00:32:00,46.5,41.0,30.01,East,79,0.0,0.0,81,0.00,,,0.00,VWS V14.01,2013-10-23 07:32:00,
2013-10-23 00:37:00,46.7,41.2,30.01,East,79,0.0,0.0,81,0.00,,,0.00,VWS V14.01,2013-10-23 07:37:00,
2013-10-23 00:42:00,46.8,41.3,30.01,East,79,0.0,0.0,81,0.00,,,0.00,VWS V14.01,2013-10-23 07:42:00,
2013-10-23 00:47:00,46.8,41.3,30.01,East,79,0.0,0.0,81,0.00,,,0.00,VWS V14.01,2013-10-23 07:47:00,
2013-10-23 00:52:00,46.6,41.1,30.01,East,79,0.0,0.0,81,0.00,,,0.00,VWS V14.01,2013-10-23 07:52:00,
2013-10-23 00:57:00,46.2,40.4,30.01,East,79,0.0,0.0,80,0.00,,,0.00,VWS V14.01,2013-10-23 07:57:00,
2013-10-23 01:02:00,46.0,40.8,30.01,East,79,0.0,0.0,82,0.00,,,0.00,VWS V14.01,2013-10-23 08:02:00,
2013-10-23 01:07:00,45.9,40.7,30.01,East,79,0.0,0.0,82,0.00,,,0.00,VWS V14.01,2013-10-23 08:07:00,
2013-10-23 01:12:00,45.8,40.6,30.01,East,79,0.0,0.0,82,0.00,,,0.00,VWS V14.01,2013-10-23 08:12:00,
2013-10-23 01:17:00,45.9,41.0,30.01,East,79,0.0,0.0,83,0.00,,,0.00,VWS V14.01,2013-10-23 08:17:00,
2013-10-23 01:22:00,45.9,40.7,30.01,East,79,0.0,0.0,82,0.00,,,0.00,VWS V14.01,2013-10-23 08:22:00,
2013-10-23 01:27:00,45.8,40.6,30.01,East,79,0.0,0.0,82,0.00,,,0.00,VWS V14.01,2013-10-23 08:27:00,
2013-10-23 01:32:00,45.7,40.8,30.01,East,79,0.0,0.0,83,0.00,,,0.00,VWS V14.01,2013-10-23 08:32:00,
2013-10-23 01:37:00,45.6,40.7,30.01,East,79,0.0,0.0,83,0.00,,,0.00,VWS V14.01,2013-10-23 08:37:00,
2013-10-23 01:42:00,45.6,40.7,30.01,East,79,0.0,0.0,83,0.00,,,0.00,VWS V14.01,2013-10-23 08:42:00,
2013-10-23 01:47:00,45.5,41.0,30.01,East,79,0.0,0.0,84,0.00,,,0.00,VWS V14.01,2013-10-23 08:47:00,
2013-10-23 01:52:00,45.3,40.5,30.01,East,79,0.0,0.0,83,0.00,,,0.00,VWS V14.01,2013-10-23 08:52:00,
2013-10-23 01:57:00,45.4,41.2,30.01,East,79,0.0,0.0,85,0.00,,,0.00,VWS V14.01,2013-10-23 08:57:00,
2013-10-23 02:02:00,45.3,40.8,30.01,East,79,0.0,0.0,84,0.00,,,0.00,VWS V14.01,2013-10-23 09:02:00,
2013-10-23 02:07:00,45.1,40.6,30.01,East,79,0.0,0.0,84,0.00,,,0.00,VWS V14.01,2013-10-23 09:07:00,
2013-10-23 02:12:00,44.9,40.4,30.01,East,79,0.0,0.0,84,0.00,,,0.00,VWS V14.01,2013-10-23 09:12:00,
2013-10-23 02:17:00,44.8,40.6,30.01,East,79,0.0,0.0,85,0.00,,,0.00,VWS V14.01,2013-10-23 09:17:00,
2013-10-23 02:22:00,44.9,40.7,30.01,East,79,0.0,0.0,85,0.00,,,0.00,VWS V14.01,2013-10-23 09:22:00,
2013-10-23 02:27:00,44.7,40.5,30.01,East,79,0.0,0.0,85,0.00,,,0.00,VWS V14.01,2013-10-23 09:27:00,
2013-10-23 02:32:00,44.5,40.3,30.01,East,79,0.0,0.0,85,0.00,,,0.00,VWS V14.01,2013-10-23 09:32:00,
2013-10-23 02:37:00,44.3,40.1,30.01,East,79,0.0,0.0,85,0.00,,,0.00,VWS V14.01,2013-10-23 09:37:00,
2013-10-23 02:42:00,44.2,40.3,30.01,East,79,0.0,0.0,86,0.00,,,0.00,VWS V14.01,2013-10-23 09:42:00,
2013-10-23 02:47:00,44.4,41.1,30.01,East,79,0.0,0.0,88,0.00,,,0.00,VWS V14.01,2013-10-23 09:47:00,
2013-10-23 02:52:00,44.5,40.9,30.01,East,79,0.0,0.0,87,0.00,,,0.00,VWS V14.01,2013-10-23 09:52:00,
2013-10-23 02:57:00,44.4,40.5,30.01,East,79,0.0,0.0,86,0.00,,,0.00,VWS V14.01,2013-10-23 09:57:00,
2013-10-23 03:02:00,44.2,40.3,30.01,East,79,0.0,0.0,86,0.00,,,0.00,VWS V14.01,2013-10-23 10:02:00,
2013-10-23 03:07:00,44.3,41.0,30.01,East,79,0.0,0.0,88,0.00,,,0.00,VWS V14.01,2013-10-23 10:07:00,
2013-10-23 03:12:00,44.6,41.3,30.01,East,79,0.0,0.0,88,0.00,,,0.00,VWS V14.01,2013-10-23 10:12:00,
2013-10-23 03:17:00,44.7,41.1,30.01,East,79,0.0,0.0,87,0.00,,,0.00,VWS V14.01,2013-10-23 10:17:00,
2013-10-23 03:22:00,44.6,40.7,30.01,East,79,0.0,0.0,86,0.00,,,0.00,VWS V14.01,2013-10-23 10:22:00,
2013-10-23 03:27:00,44.5,40.6,30.01,East,79,0.0,0.0,86,0.00,,,0.00,VWS V14.01,2013-10-23 10:27:00,
2013-10-23 03:32:00,44.4,40.5,30.01,East,79,0.0,0.0,86,0.00,,,0.00,VWS V14.01,2013-10-23 10:32:00,
2013-10-23 03:37:00,44.0,40.1,30.01,East,79,0.0,0.0,86,0.00,,,0.00,VWS V14.01,2013-10-23 10:37:00,
2013-10-23 03:42:00,43.8,40.2,30.01,East,79,0.0,0.0,87,0.00,,,0.00,VWS V14.01,2013-10-23 10:42:00,
2013-10-23 03:46:00,43.6,40.0,30.01,East,79,0.0,0.0,87,0.00,,,0.00,VWS V14.01,2013-10-23 10:46:00,
2013-10-23 03:51:00,43.4,39.8,30.01,East,79,0.0,0.0,87,0.00,,,0.00,VWS V14.01,2013-10-23 10:51:00,
2013-10-23 03:56:00,43.2,39.6,30.01,East,79,0.0,0.0,87,0.00,,,0.00,VWS V14.01,2013-10-23 10:56:00,
2013-10-23 04:02:00,43.1,40.1,30.01,East,79,0.0,0.0,89,0.00,,,0.00,VWS V14.01,2013-10-23 11:02:00,
2013-10-23 04:07:00,43.2,40.5,30.01,East,79,0.0,0.0,90,0.00,,,0.00,VWS V14.01,2013-10-23 11:07:00,
2013-10-23 04:12:00,43.4,40.4,30.01,East,79,0.0,0.0,89,0.00,,,0.00,VWS V14.01,2013-10-23 11:12:00,
2013-10-23 04:17:00,43.3,40.0,30.01,East,79,0.0,0.0,88,0.00,,,0.00,VWS V14.01,2013-10-23 11:17:00,
2013-10-23 04:22:00,43.3,40.3,30.01,East,79,0.0,0.0,89,0.00,,,0.00,VWS V14.01,2013-10-23 11:22:00,
2013-10-23 04:27:00,43.4,40.4,30.01,East,79,0.0,0.0,89,0.00,,,0.00,VWS V14.01,2013-10-23 11:27:00,
2013-10-23 04:32:00,43.3,40.3,30.01,East,79,0.0,0.0,89,0.00,,,0.00,VWS V14.01,2013-10-23 11:32:00,
2013-10-23 04:37:00,43.0,39.7,30.02,East,79,0.0,0.0,88,0.00,,,0.00,VWS V14.01,2013-10-23 11:37:00,
2013-10-23 04:42:00,42.9,39.9,30.02,East,79,0.0,0.0,89,0.00,,,0.00,VWS V14.01,2013-10-23 11:42:00,
2013-10-23 04:47:00,42.9,40.2,30.02,East,79,0.0,0.0,90,0.00,,,0.00,VWS V14.01,2013-10-23 11:47:00,
2013-10-23 04:52:00,42.9,39.9,30.01,East,79,0.0,0.0,89,0.00,,,0.00,VWS V14.01,2013-10-23 11:52:00,
2013-10-23 04:57:00,42.8,39.8,30.01,East,79,0.0,0.0,89,0.00,,,0.00,VWS V14.01,2013-10-23 11:57:00,
2013-10-23 05:02:00,42.7,39.7,30.01,East,79,0.0,0.0,89,0.00,,,0.00,VWS V14.01,2013-10-23 12:02:00,
2013-10-23 05:07:00,42.4,39.4,30.01,East,79,0.0,0.0,89,0.00,,,0.00,VWS V14.01,2013-10-23 12:07:00,
2013-10-23 05:12:00,42.3,39.6,30.01,East,79,0.0,0.0,90,0.00,,,0.00,VWS V14.01,2013-10-23 12:12:00,
2013-10-23 05:17:00,42.2,39.5,30.02,East,79,0.0,0.0,90,0.00,,,0.00,VWS V14.01,2013-10-23 12:17:00,
2013-10-23 05:21:00,42.1,39.4,30.02,East,79,0.0,0.0,90,0.00,,,0.00,VWS V14.01,2013-10-23 12:21:00,
2013-10-23 05:26:00,42.0,39.3,30.02,East,79,0.0,0.0,90,0.00,,,0.00,VWS V14.01,2013-10-23 12:26:00,
2013-10-23 05:31:00,41.9,39.2,30.02,East,79,0.0,0.0,90,0.00,,,0.00,VWS V14.01,2013-10-23 12:31:00,
2013-10-23 05:36:00,41.9,39.5,30.02,East,79,0.0,0.0,91,0.00,,,0.00,VWS V14.01,2013-10-23 12:36:00,
2013-10-23 05:41:00,41.9,39.5,30.02,East,79,0.0,0.0,91,0.00,,,0.00,VWS V14.01,2013-10-23 12:41:00,
2013-10-23 05:46:00,41.9,39.5,30.02,East,79,0.0,0.0,91,0.00,,,0.00,VWS V14.01,2013-10-23 12:46:00,
2013-10-23 05:51:00,41.9,39.5,30.02,East,79,0.0,0.0,91,0.00,,,0.00,VWS V14.01,2013-10-23 12:51:00,
2013-10-23 05:56:00,41.6,38.9,30.02,East,79,0.0,0.0,90,0.00,,,0.00,VWS V14.01,2013-10-23 12:56:00,
2013-10-23 06:01:00,41.4,39.0,30.02,East,79,0.0,0.0,91,0.00,,,0.00,VWS V14.01,2013-10-23 13:01:00,
2013-10-23 06:06:00,41.2,38.8,30.02,East,79,0.0,0.0,91,0.00,,,0.00,VWS V14.01,2013-10-23 13:06:00,
2013-10-23 06:11:00,41.1,38.7,30.02,East,79,0.0,0.0,91,0.00,,,0.00,VWS V14.01,2013-10-23 13:11:00,
2013-10-23 06:16:00,40.9,38.5,30.02,East,79,0.0,0.0,91,0.00,,,0.00,VWS V14.01,2013-10-23 13:16:00,
2013-10-23 06:21:00,40.9,38.5,30.02,East,79,0.0,0.0,91,0.00,,,0.00,VWS V14.01,2013-10-23 13:21:00,
2013-10-23 06:26:00,40.7,38.3,30.02,East,79,0.0,0.0,91,0.00,,,0.00,VWS V14.01,2013-10-23 13:26:00,
2013-10-23 06:31:00,40.8,38.7,30.02,East,79,0.0,0.0,92,0.00,,,0.00,VWS V14.01,2013-10-23 13:31:00,
2013-10-23 06:36:00,40.8,38.7,30.02,East,79,0.0,0.0,92,0.00,,,0.00,VWS V14.01,2013-10-23 13:36:00,
2013-10-23 06:41:00,40.6,38.5,30.02,East,79,0.0,0.0,92,0.00,,,0.00,VWS V14.01,2013-10-23 13:41:00,
2013-10-23 06:46:00,40.6,38.5,30.02,East,79,0.0,0.0,92,0.00,,,0.00,VWS V14.01,2013-10-23 13:46:00,
2013-10-23 06:51:00,40.7,38.6,30.02,East,79,0.0,0.0,92,0.00,,,0.00,VWS V14.01,2013-10-23 13:51:00,
2013-10-23 06:56:00,40.7,38.6,30.02,East,79,0.0,0.0,92,0.00,,,0.00,VWS V14.01,2013-10-23 13:56:00,
2013-10-23 07:01:00,40.5,38.4,30.03,East,79,0.0,0.0,92,0.00,,,0.00,VWS V14.01,2013-10-23 14:01:00,
2013-10-23 07:06:00,40.4,38.3,30.03,East,79,0.0,0.0,92,0.00,,,0.00,VWS V14.01,2013-10-23 14:06:00,
2013-10-23 07:11:00,40.3,38.2,30.03,East,79,0.0,0.0,92,0.00,,,0.00,VWS V14.01,2013-10-23 14:11:00,
2013-10-23 07:16:00,40.1,38.0,30.03,East,79,0.0,0.0,92,0.00,,,0.00,VWS V14.01,2013-10-23 14:16:00,
2013-10-23 07:21:00,40.5,38.9,30.03,East,79,0.0,0.0,94,0.00,,,0.00,VWS V14.01,2013-10-23 14:21:00,
2013-10-23 07:26:00,40.7,38.8,30.03,East,79,0.0,0.0,93,0.00,,,0.00,VWS V14.01,2013-10-23 14:26:00,
2013-10-23 07:31:00,40.7,38.8,30.03,East,79,0.0,0.0,93,0.00,,,0.00,VWS V14.01,2013-10-23 14:31:00,
2013-10-23 07:36:00,40.6,38.7,30.03,East,79,0.0,0.0,93,0.00,,,0.00,VWS V14.01,2013-10-23 14:36:00,
2013-10-23 07:41:00,40.4,38.5,30.03,East,79,0.0,0.0,93,0.00,,,0.00,VWS V14.01,2013-10-23 14:41:00,
2013-10-23 07:46:00,40.3,38.4,30.03,East,79,0.0,0.0,93,0.00,,,0.00,VWS V14.01,2013-10-23 14:46:00,
2013-10-23 07:51:00,40.2,38.3,30.03,East,79,0.0,0.0,93,0.00,,,0.00,VWS V14.01,2013-10-23 14:51:00,
2013-10-23 07:56:00,40.2,38.3,30.04,East,79,0.0,0.0,93,0.00,,,0.00,VWS V14.01,2013-10-23 14:56:00,
2013-10-23 08:01:00,40.3,38.4,30.04,East,79,0.0,0.0,93,0.00,,,0.00,VWS V14.01,2013-10-23 15:01:00,
2013-10-23 08:06:00,40.6,39.0,30.04,East,79,0.0,0.0,94,0.00,,,0.00,VWS V14.01,2013-10-23 15:06:00,
2013-10-23 08:11:00,40.9,39.3,30.04,East,79,0.0,0.0,94,0.00,,,0.00,VWS V14.01,2013-10-23 15:11:00,
2013-10-23 08:16:00,41.2,39.6,30.04,East,79,0.0,0.0,94,0.00,,,0.00,VWS V14.01,2013-10-23 15:16:00,
2013-10-23 08:21:00,41.6,40.0,30.04,East,79,0.0,0.0,94,0.00,,,0.00,VWS V14.01,2013-10-23 15:21:00,
2013-10-23 08:26:00,41.9,40.3,30.04,East,79,0.0,0.0,94,0.00,,,0.00,VWS V14.01,2013-10-23 15:26:00,
2013-10-23 08:31:00,42.2,40.6,30.04,ENE,78,0.0,0.0,94,0.00,,,0.00,VWS V14.01,2013-10-23 15:31:00,
2013-10-23 08:36:00,43.0,41.7,30.04,ENE,77,0.0,0.0,95,0.00,,,0.00,VWS V14.01,2013-10-23 15:36:00,
2013-10-23 08:41:00,44.1,42.8,30.04,ENE,77,0.0,0.0,95,0.00,,,0.00,VWS V14.01,2013-10-23 15:41:00,
2013-10-23 08:46:00,44.9,43.8,30.04,ENE,77,0.0,0.0,96,0.00,,,0.00,VWS V14.01,2013-10-23 15:46:00,
2013-10-23 08:51:00,46.2,45.1,30.04,ENE,78,0.0,0.0,96,0.00,,,0.00,VWS V14.01,2013-10-23 15:51:00,
2013-10-23 08:56:00,48.3,47.2,30.04,ENE,77,0.0,0.0,96,0.00,,,0.00,VWS V14.01,2013-10-23 15:56:00,
2013-10-23 09:01:00,50.3,49.2,30.04,ENE,77,0.0,0.0,96,0.00,,,0.00,VWS V14.01,2013-10-23 16:01:00,
2013-10-23 09:06:00,51.6,48.5,30.04,ENE,78,0.0,0.0,89,0.00,,,0.00,VWS V14.01,2013-10-23 16:06:00,
2013-10-23 09:11:00,52.2,48.5,30.04,ESE,102,0.0,0.0,87,0.00,,,0.00,VWS V14.01,2013-10-23 16:11:00,
2013-10-23 09:16:00,52.5,48.4,30.04,ENE,60,0.0,0.0,86,0.00,,,0.00,VWS V14.01,2013-10-23 16:16:00,
2013-10-23 09:21:00,53.1,48.4,30.04,SW,214,0.0,1.0,84,0.00,,,0.00,VWS V14.01,2013-10-23 16:21:00,
2013-10-23 09:26:00,53.6,48.9,30.04,WSW,250,0.0,1.0,84,0.00,,,0.00,VWS V14.01,2013-10-23 16:26:00,
2013-10-23 09:31:00,54.3,48.9,30.04,WSW,252,0.0,1.0,82,0.00,,,0.00,VWS V14.01,2013-10-23 16:31:00,
2013-10-23 09:36:00,54.7,49.0,30.04,WSW,257,0.0,0.0,81,0.00,,,0.00,VWS V14.01,2013-10-23 16:36:00,
2013-10-23 09:41:00,55.1,49.4,30.04,West,261,0.0,0.0,81,0.00,,,0.00,VWS V14.01,2013-10-23 16:41:00,
2013-10-23 09:46:00,55.8,49.7,30.04,West,262,0.0,1.0,80,0.00,,,0.00,VWS V14.01,2013-10-23 16:46:00,
2013-10-23 09:51:00,56.3,49.5,30.04,West,262,0.0,1.0,78,0.00,,,0.00,VWS V14.01,2013-10-23 16:51:00,
2013-10-23 09:56:00,56.8,49.7,30.04,WNW,298,0.0,1.0,77,0.00,,,0.00,VWS V14.01,2013-10-23 16:56:00,
2013-10-23 10:01:00,57.2,49.7,30.04,West,278,1.0,2.0,76,0.00,,,0.00,VWS V14.01,2013-10-23 17:01:00,
2013-10-23 10:06:00,57.5,49.7,30.04,WNW,295,0.0,1.0,75,0.00,,,0.00,VWS V14.01,2013-10-23 17:06:00,
2013-10-23 10:11:00,58.2,50.3,30.04,WNW,295,0.0,1.0,75,0.00,,,0.00,VWS V14.01,2013-10-23 17:11:00,
2013-10-23 10:16:00,58.6,50.3,30.04,WNW,295,1.0,2.0,74,0.00,,,0.00,VWS V14.01,2013-10-23 17:16:00,
2013-10-23 10:21:00,58.9,50.6,30.04,West,269,0.0,2.0,74,0.00,,,0.00,VWS V14.01,2013-10-23 17:21:00,
2013-10-23 10:26:00,59.5,50.1,30.04,SSE,165,0.0,2.0,71,0.00,,,0.00,VWS V14.01,2013-10-23 17:26:00,
2013-10-23 10:31:00,60.3,50.5,30.04,WNW,283,1.0,2.0,70,0.00,,,0.00,VWS V14.01,2013-10-23 17:31:00,
2013-10-23 10:36:00,60.3,50.1,30.04,West,271,0.0,2.0,69,0.00,,,0.00,VWS V14.01,2013-10-23 17:36:00,
2013-10-23 10:41:00,60.1,49.9,30.04,NE,49,0.0,2.0,69,0.00,,,0.00,VWS V14.01,2013-10-23 17:41:00,
2013-10-23 10:46:00,60.0,49.8,30.04,NW,311,0.0,2.0,69,0.00,,,0.00,VWS V14.01,2013-10-23 17:46:00,
2013-10-23 10:51:00,61.0,51.5,30.03,SW,217,1.0,2.0,71,0.00,,,0.00,VWS V14.01,2013-10-23 17:51:00,
2013-10-23 10:56:00,61.8,50.3,30.03,SSW,210,0.0,2.0,66,0.00,,,0.00,VWS V14.01,2013-10-23 17:56:00,
2013-10-23 11:01:00,62.5,51.4,30.03,WSW,246,0.0,2.0,67,0.00,,,0.00,VWS V14.01,2013-10-23 18:01:00,
2013-10-23 11:06:00,63.0,51.5,30.03,SW,222,0.0,2.0,66,0.00,,,0.00,VWS V14.01,2013-10-23 18:06:00,
2013-10-23 11:11:00,63.6,52.0,30.03,WSW,243,1.0,2.0,66,0.00,,,0.00,VWS V14.01,2013-10-23 18:11:00,
2013-10-23 11:16:00,64.0,51.2,30.03,WSW,251,0.0,2.0,63,0.00,,,0.00,VWS V14.01,2013-10-23 18:16:00,
2013-10-23 11:21:00,64.6,52.2,30.03,NNW,345,0.0,2.0,64,0.00,,,0.00,VWS V14.01,2013-10-23 18:21:00,
2013-10-23 11:26:00,65.0,52.1,30.03,WSW,246,0.0,2.0,63,0.00,,,0.00,VWS V14.01,2013-10-23 18:26:00,
2013-10-23 11:31:00,65.3,51.1,30.03,ENE,76,1.0,2.0,60,0.00,,,0.00,VWS V14.01,2013-10-23 18:31:00,
2013-10-23 11:36:00,65.4,52.5,30.02,NW,304,1.0,1.0,63,0.00,,,0.00,VWS V14.01,2013-10-23 18:36:00,
2013-10-23 11:41:00,65.8,52.0,30.02,NE,46,0.0,2.0,61,0.00,,,0.00,VWS V14.01,2013-10-23 18:41:00,
2013-10-23 11:46:00,66.5,51.8,30.02,ENE,72,0.0,2.0,59,0.00,,,0.00,VWS V14.01,2013-10-23 18:46:00,
2013-10-23 11:51:00,67.0,52.7,30.02,WNW,285,0.0,2.0,60,0.00,,,0.00,VWS V14.01,2013-10-23 18:51:00,
2013-10-23 11:56:00,67.7,52.9,30.01,ENE,74,0.0,2.0,59,0.00,,,0.00,VWS V14.01,2013-10-23 18:56:00,
2013-10-23 12:01:00,68.5,53.2,30.01,West,275,0.0,2.0,58,0.00,,,0.00,VWS V14.01,2013-10-23 19:01:00,
2013-10-23 12:06:00,69.3,53.4,30.01,West,264,0.0,2.0,57,0.00,,,0.00,VWS V14.01,2013-10-23 19:06:00,
2013-10-23 12:11:00,69.9,52.5,30.01,West,277,1.0,2.0,54,0.00,,,0.00,VWS V14.01,2013-10-23 19:11:00,
2013-10-23 12:16:00,70.3,53.9,30.01,West,269,0.0,2.0,56,0.00,,,0.00,VWS V14.01,2013-10-23 19:16:00,
2013-10-23 12:21:00,70.4,52.0,30.01,WNW,294,2.0,3.0,52,0.00,,,0.00,VWS V14.01,2013-10-23 19:21:00,
2013-10-23 12:26:00,70.4,52.0,30.01,WNW,283,1.0,3.0,52,0.00,,,0.00,VWS V14.01,2013-10-23 19:26:00,
2013-10-23 12:31:00,70.8,51.3,30.00,SW,214,0.0,3.0,50,0.00,,,0.00,VWS V14.01,2013-10-23 19:31:00,
2013-10-23 12:36:00,71.2,52.2,30.00,North,349,0.0,2.0,51,0.00,,,0.00,VWS V14.01,2013-10-23 19:36:00,
2013-10-23 12:41:00,71.5,51.9,30.00,NW,307,0.0,3.0,50,0.00,,,0.00,VWS V14.01,2013-10-23 19:41:00,
2013-10-23 12:46:00,71.6,51.5,30.00,West,270,1.0,3.0,49,0.00,,,0.00,VWS V14.01,2013-10-23 19:46:00,
2013-10-23 12:51:00,72.1,52.5,30.00,West,278,2.0,3.0,50,0.00,,,0.00,VWS V14.01,2013-10-23 19:51:00,
2013-10-23 12:56:00,72.5,53.4,30.00,ESE,117,1.0,3.0,51,0.00,,,0.00,VWS V14.01,2013-10-23 19:56:00,
2013-10-23 13:01:00,72.7,53.0,30.00,WSW,250,2.0,3.0,50,0.00,,,0.00,VWS V14.01,2013-10-23 20:01:00,
2013-10-23 13:06:00,72.6,53.5,30.00,ESE,110,0.0,2.0,51,0.00,,,0.00,VWS V14.01,2013-10-23 20:06:00,
2013-10-23 13:11:00,72.7,53.5,29.99,SSW,204,0.0,3.0,51,0.00,,,0.00,VWS V14.01,2013-10-23 20:11:00,
2013-10-23 13:16:00,72.6,54.5,29.99,NE,55,0.0,3.0,53,0.00,,,0.00,VWS V14.01,2013-10-23 20:16:00,
2013-10-23 13:21:00,72.7,53.5,29.99,WNW,292,0.0,3.0,51,0.00,,,0.00,VWS V14.01,2013-10-23 20:21:00,
2013-10-23 13:26:00,73.2,54.0,29.99,West,279,1.0,3.0,51,0.00,,,0.00,VWS V14.01,2013-10-23 20:26:00,
2013-10-23 13:31:00,73.3,54.6,29.99,SW,222,1.0,3.0,52,0.00,,,0.00,VWS V14.01,2013-10-23 20:31:00,
2013-10-23 13:36:00,73.5,54.8,29.98,WNW,302,1.0,1.0,52,0.00,,,0.00,VWS V14.01,2013-10-23 20:36:00,
2013-10-23 13:41:00,73.8,53.5,29.98,NW,321,0.0,1.0,49,0.00,,,0.00,VWS V14.01,2013-10-23 20:41:00,
2013-10-23 13:46:00,74.1,53.2,29.98,NW,312,0.0,1.0,48,0.00,,,0.00,VWS V14.01,2013-10-23 20:46:00,
2013-10-23 13:51:00,74.7,53.2,29.97,WNW,285,1.0,1.0,47,0.00,,,0.00,VWS V14.01,2013-10-23 20:51:00,
2013-10-23 13:56:00,74.9,54.5,29.97,SW,224,0.0,3.0,49,0.00,,,0.00,VWS V14.01,2013-10-23 20:56:00,
2013-10-23 14:01:00,75.0,52.8,29.97,NW,319,0.0,3.0,46,0.00,,,0.00,VWS V14.01,2013-10-23 21:01:00,
2013-10-23 14:06:00,74.8,52.1,29.96,ENE,74,1.0,1.0,45,0.00,,,0.00,VWS V14.01,2013-10-23 21:06:00,
2013-10-23 14:11:00,75.0,51.6,29.96,NNW,330,0.0,2.0,44,0.00,,,0.00,VWS V14.01,2013-10-23 21:11:00,
2013-10-23 14:16:00,75.3,51.3,29.96,West,269,1.0,2.0,43,0.00,,,0.00,VWS V14.01,2013-10-23 21:16:00,
2013-10-23 14:21:00,75.4,51.4,29.96,WNW,291,1.0,2.0,43,0.00,,,0.00,VWS V14.01,2013-10-23 21:21:00,
2013-10-23 14:26:00,75.7,51.6,29.96,NW,312,0.0,2.0,43,0.00,,,0.00,VWS V14.01,2013-10-23 21:26:00,
2013-10-23 14:31:00,75.9,51.2,29.96,WSW,253,1.0,3.0,42,0.00,,,0.00,VWS V14.01,2013-10-23 21:31:00,
2013-10-23 14:36:00,75.9,50.5,29.96,SW,233,1.0,2.0,41,0.00,,,0.00,VWS V14.01,2013-10-23 21:36:00,
2013-10-23 14:41:00,76.1,50.0,29.96,ENE,59,2.0,3.0,40,0.00,,,0.00,VWS V14.01,2013-10-23 21:41:00,
2013-10-23 14:46:00,76.2,50.1,29.96,NNW,341,1.0,3.0,40,0.00,,,0.00,VWS V14.01,2013-10-23 21:46:00,
2013-10-23 14:51:00,76.2,50.8,29.96,NW,304,1.0,3.0,41,0.00,,,0.00,VWS V14.01,2013-10-23 21:51:00,
2013-10-23 14:56:00,76.2,50.1,29.96,WNW,300,1.0,3.0,40,0.00,,,0.00,VWS V14.01,2013-10-23 21:56:00,
2013-10-23 15:01:00,76.3,49.5,29.96,NW,324,0.0,3.0,39,0.00,,,0.00,VWS V14.01,2013-10-23 22:01:00,
2013-10-23 15:06:00,76.2,50.8,29.95,West,267,2.0,2.0,41,0.00,,,0.00,VWS V14.01,2013-10-23 22:06:00,
2013-10-23 15:11:00,76.2,50.8,29.95,WNW,302,0.0,2.0,41,0.00,,,0.00,VWS V14.01,2013-10-23 22:11:00,
2013-10-23 15:16:00,76.2,50.1,29.95,NE,54,0.0,3.0,40,0.00,,,0.00,VWS V14.01,2013-10-23 22:16:00,
2013-10-23 15:21:00,76.2,49.5,29.95,WNW,296,1.0,3.0,39,0.00,,,0.00,VWS V14.01,2013-10-23 22:21:00,
2013-10-23 15:26:00,76.4,51.0,29.95,NNE,13,1.0,3.0,41,0.00,,,0.00,VWS V14.01,2013-10-23 22:26:00,
2013-10-23 15:30:00,76.5,49.0,29.95,WSW,240,2.0,3.0,38,0.00,,,0.00,VWS V14.01,2013-10-23 22:30:00,
2013-10-23 15:35:00,76.5,49.0,29.95,WNW,284,0.0,2.0,38,0.00,,,0.00,VWS V14.01,2013-10-23 22:35:00,
2013-10-23 15:40:00,76.6,48.4,29.95,West,275,1.0,2.0,37,0.00,,,0.00,VWS V14.01,2013-10-23 22:40:00,
2013-10-23 15:45:00,76.8,49.3,29.95,WNW,288,1.0,2.0,38,0.00,,,0.00,VWS V14.01,2013-10-23 22:45:00,
2013-10-23 15:50:00,77.0,49.5,29.95,WNW,283,0.0,2.0,38,0.00,,,0.00,VWS V14.01,2013-10-23 22:50:00,
2013-10-23 15:55:00,77.0,48.8,29.95,NW,321,0.0,3.0,37,0.00,,,0.00,VWS V14.01,2013-10-23 22:55:00,
2013-10-23 16:00:00,77.2,48.9,29.95,West,281,1.0,3.0,37,0.00,,,0.00,VWS V14.01,2013-10-23 23:00:00,
2013-10-23 16:05:00,77.0,49.5,29.95,WSW,241,0.0,2.0,38,0.00,,,0.00,VWS V14.01,2013-10-23 23:05:00,
2013-10-23 16:10:00,76.8,49.3,29.95,WSW,247,1.0,2.0,38,0.00,,,0.00,VWS V14.01,2013-10-23 23:10:00,
2013-10-23 16:15:00,76.7,47.8,29.95,WSW,256,1.0,2.0,36,0.00,,,0.00,VWS V14.01,2013-10-23 23:15:00,
2013-10-23 16:20:00,76.7,49.2,29.94,East,83,1.0,2.0,38,0.00,,,0.00,VWS V14.01,2013-10-23 23:20:00,
2013-10-23 16:25:00,76.6,48.4,29.94,SW,234,2.0,2.0,37,0.00,,,0.00,VWS V14.01,2013-10-23 23:25:00,
2013-10-23 16:30:00,76.4,47.5,29.94,West,264,0.0,2.0,36,0.00,,,0.00,VWS V14.01,2013-10-23 23:30:00,
2013-10-23 16:35:00,76.6,48.4,29.94,West,264,0.0,1.0,37,0.00,,,0.00,VWS V14.01,2013-10-23 23:35:00,
2013-10-23 16:40:00,76.3,48.8,29.94,North,349,0.0,2.0,38,0.00,,,0.00,VWS V14.01,2013-10-23 23:40:00,
2013-10-23 16:45:00,76.2,48.8,29.94,NNW,328,0.0,2.0,38,0.00,,,0.00,VWS V14.01,2013-10-23 23:45:00,
2013-10-23 16:50:00,75.7,49.0,29.94,NW,314,0.0,2.0,39,0.00,,,0.00,VWS V14.01,2013-10-23 23:50:00,
2013-10-23 16:55:00,75.2,49.2,29.94,WNW,290,0.0,2.0,40,0.00,,,0.00,VWS V14.01,2013-10-23 23:55:00,
2013-10-23 17:00:00,74.7,49.5,29.94,WSW,256,0.0,2.0,41,0.00,,,0.00,VWS V14.01,2013-10-24 00:00:00,
2013-10-23 17:05:00,74.3,49.8,29.94,West,270,0.0,0.0,42,0.00,,,0.00,VWS V14.01,2013-10-24 00:05:00,
2013-10-23 17:10:00,74.0,48.8,29.95,WSW,252,0.0,3.0,41,0.00,,,0.00,VWS V14.01,2013-10-24 00:10:00,
2013-10-23 17:15:00,73.6,47.8,29.94,SW,231,0.0,3.0,40,0.00,,,0.00,VWS V14.01,2013-10-24 00:15:00,
2013-10-23 17:20:00,73.2,48.1,29.95,WSW,241,1.0,3.0,41,0.00,,,0.00,VWS V14.01,2013-10-24 00:20:00,
2013-10-23 17:25:00,72.8,48.4,29.94,SW,231,0.0,3.0,42,0.00,,,0.00,VWS V14.01,2013-10-24 00:25:00,
2013-10-23 17:30:00,72.5,48.1,29.94,West,266,0.0,3.0,42,0.00,,,0.00,VWS V14.01,2013-10-24 00:30:00,
2013-10-23 17:35:00,72.1,48.4,29.94,WNW,294,0.0,1.0,43,0.00,,,0.00,VWS V14.01,2013-10-24 00:35:00,
2013-10-23 17:40:00,71.8,48.7,29.95,West,266,0.0,1.0,44,0.00,,,0.00,VWS V14.01,2013-10-24 00:40:00,
2013-10-23 17:45:00,71.4,48.4,29.95,ENE,58,0.0,2.0,44,0.00,,,0.00,VWS V14.01,2013-10-24 00:45:00,
2013-10-23 17:50:00,71.0,48.6,29.95,ENE,58,0.0,2.0,45,0.00,,,0.00,VWS V14.01,2013-10-24 00:50:00,
2013-10-23 17:56:00,70.5,48.8,29.95,NW,312,0.0,2.0,46,0.00,,,0.00,VWS V14.01,2013-10-24 00:56:00,
2013-10-23 18:01:00,69.8,48.7,29.95,NW,318,0.0,2.0,47,0.00,,,0.00,VWS V14.01,2013-10-24 01:01:00,
2013-10-23 18:06:00,69.2,49.2,29.95,NW,318,0.0,0.0,49,0.00,,,0.00,VWS V14.01,2013-10-24 01:06:00,
2013-10-23 18:11:00,68.4,49.6,29.95,NW,318,0.0,0.0,51,0.00,,,0.00,VWS V14.01,2013-10-24 01:11:00,
2013-10-23 18:16:00,67.7,50.0,29.95,NW,318,0.0,0.0,53,0.00,,,0.00,VWS V14.01,2013-10-24 01:16:00,
2013-10-23 18:21:00,66.9,49.7,29.95,NW,318,0.0,0.0,54,0.00,,,0.00,VWS V14.01,2013-10-24 01:21:00,
2013-10-23 18:26:00,66.1,50.0,29.95,NW,318,0.0,0.0,56,0.00,,,0.00,VWS V14.01,2013-10-24 01:26:00,
2013-10-23 18:31:00,65.3,49.7,29.96,NW,318,0.0,0.0,57,0.00,,,0.00,VWS V14.01,2013-10-24 01:31:00,
2013-10-23 18:36:00,64.5,49.9,29.96,NW,318,0.0,0.0,59,0.00,,,0.00,VWS V14.01,2013-10-24 01:36:00,
2013-10-23 18:41:00,63.7,50.0,29.96,NW,318,0.0,0.0,61,0.00,,,0.00,VWS V14.01,2013-10-24 01:41:00,
2013-10-23 18:46:00,63.0,49.8,29.96,NW,316,0.0,0.0,62,0.00,,,0.00,VWS V14.01,2013-10-24 01:46:00,
2013-10-23 18:51:00,62.4,50.1,29.96,NW,316,0.0,0.0,64,0.00,,,0.00,VWS V14.01,2013-10-24 01:51:00,
2013-10-23 18:56:00,61.6,49.7,29.96,NW,316,0.0,0.0,65,0.00,,,0.00,VWS V14.01,2013-10-24 01:56:00,
2013-10-23 19:01:00,61.0,49.6,29.96,NW,316,0.0,0.0,66,0.00,,,0.00,VWS V14.01,2013-10-24 02:01:00,
2013-10-23 19:06:00,60.5,49.5,29.96,NW,316,0.0,0.0,67,0.00,,,0.00,VWS V14.01,2013-10-24 02:06:00,
2013-10-23 19:11:00,60.1,49.5,29.97,NW,316,0.0,0.0,68,0.00,,,0.00,VWS V14.01,2013-10-24 02:11:00,
2013-10-23 19:16:00,59.7,49.5,29.97,NW,316,0.0,0.0,69,0.00,,,0.00,VWS V14.01,2013-10-24 02:16:00,
2013-10-23 19:21:00,59.3,49.1,29.97,NW,316,0.0,0.0,69,0.00,,,0.00,VWS V14.01,2013-10-24 02:21:00,
2013-10-23 19:26:00,58.8,49.0,29.97,NW,316,0.0,0.0,70,0.00,,,0.00,VWS V14.01,2013-10-24 02:26:00,
2013-10-23 19:31:00,58.4,49.0,29.97,NW,316,0.0,0.0,71,0.00,,,0.00,VWS V14.01,2013-10-24 02:31:00,
2013-10-23 19:36:00,58.0,49.0,29.97,NW,316,0.0,0.0,72,0.00,,,0.00,VWS V14.01,2013-10-24 02:36:00,
2013-10-23 19:41:00,57.6,49.0,29.98,NW,316,0.0,0.0,73,0.00,,,0.00,VWS V14.01,2013-10-24 02:41:00,
2013-10-23 19:46:00,57.2,48.6,29.98,NW,316,0.0,0.0,73,0.00,,,0.00,VWS V14.01,2013-10-24 02:46:00,
2013-10-23 19:51:00,57.3,48.7,29.98,NNE,33,0.0,0.0,73,0.00,,,0.00,VWS V14.01,2013-10-24 02:51:00,
2013-10-23 19:56:00,57.3,48.7,29.98,NNE,33,0.0,0.0,73,0.00,,,0.00,VWS V14.01,2013-10-24 02:56:00,
2013-10-23 20:01:00,57.6,48.7,29.98,NNE,33,0.0,1.0,72,0.00,,,0.00,VWS V14.01,2013-10-24 03:01:00,
2013-10-23 20:06:00,57.7,48.4,29.98,NNE,33,0.0,0.0,71,0.00,,,0.00,VWS V14.01,2013-10-24 03:06:00,
2013-10-23 20:11:00,57.6,48.3,29.98,NNE,33,0.0,0.0,71,0.00,,,0.00,VWS V14.01,2013-10-24 03:11:00,
2013-10-23 20:16:00,57.3,48.0,29.98,NNE,33,0.0,0.0,71,0.00,,,0.00,VWS V14.01,2013-10-24 03:16:00,
2013-10-23 20:21:00,57.1,47.8,29.98,NNE,33,0.0,0.0,71,0.00,,,0.00,VWS V14.01,2013-10-24 03:21:00,
2013-10-23 20:26:00,57.0,47.7,29.98,NNE,33,0.0,0.0,71,0.00,,,0.00,VWS V14.01,2013-10-24 03:26:00,
2013-10-23 20:30:00,56.8,47.5,29.98,NNE,33,0.0,0.0,71,0.00,,,0.00,VWS V14.01,2013-10-24 03:30:00,
2013-10-23 20:35:00,56.8,47.9,29.98,ENE,71,0.0,1.0,72,0.00,,,0.00,VWS V14.01,2013-10-24 03:35:00,
2013-10-23 20:40:00,57.0,48.4,29.98,ENE,72,0.0,1.0,73,0.00,,,0.00,VWS V14.01,2013-10-24 03:40:00,
2013-10-23 20:45:00,57.0,48.1,29.99,ENE,72,0.0,1.0,72,0.00,,,0.00,VWS V14.01,2013-10-24 03:45:00,
2013-10-23 20:50:00,56.7,47.8,29.99,WNW,284,1.0,1.0,72,0.00,,,0.00,VWS V14.01,2013-10-24 03:50:00,
2013-10-23 20:55:00,56.7,47.8,29.99,WNW,284,0.0,1.0,72,0.00,,,0.00,VWS V14.01,2013-10-24 03:55:00,
2013-10-23 21:00:00,56.5,47.6,29.99,WNW,285,0.0,1.0,72,0.00,,,0.00,VWS V14.01,2013-10-24 04:00:00,
2013-10-23 21:01:00,56.5,47.6,29.99,WNW,285,0.0,1.0,72,0.00,,,0.00,VWS V14.01,2013-10-24 04:01:00,
2013-10-23 21:02:00,56.5,47.6,29.99,WNW,285,0.0,1.0,72,0.00,,,0.00,VWS V14.01,2013-10-24 04:02:00,
2013-10-23 21:07:00,56.3,47.8,29.99,WNW,285,0.0,0.0,73,0.00,,,0.00,VWS V14.01,2013-10-24 04:07:00,
2013-10-23 21:12:00,56.1,47.6,29.99,NNE,30,0.0,1.0,73,0.00,,,0.00,VWS V14.01,2013-10-24 04:12:00,
2013-10-23 21:17:00,55.9,47.4,29.99,NNE,31,0.0,1.0,73,0.00,,,0.00,VWS V14.01,2013-10-24 04:17:00,
2013-10-23 21:22:00,55.5,47.4,30.00,NNE,31,0.0,1.0,74,0.00,,,0.00,VWS V14.01,2013-10-24 04:22:00,
2013-10-23 21:27:00,55.1,47.3,29.99,NNE,32,0.0,1.0,75,0.00,,,0.00,VWS V14.01,2013-10-24 04:27:00,
2013-10-23 21:32:00,54.8,47.0,30.00,NNE,32,0.0,1.0,75,0.00,,,0.00,VWS V14.01,2013-10-24 04:32:00,
2013-10-23 21:37:00,54.5,47.1,30.00,NNE,31,0.0,0.0,76,0.00,,,0.00,VWS V14.01,2013-10-24 04:37:00,
2013-10-23 21:42:00,54.1,47.1,30.00,NNE,33,0.0,0.0,77,0.00,,,0.00,VWS V14.01,2013-10-24 04:42:00,
2013-10-23 21:47:00,53.8,47.1,30.00,NE,39,0.0,0.0,78,0.00,,,0.00,VWS V14.01,2013-10-24 04:47:00,
2013-10-23 21:52:00,53.4,46.7,30.00,NE,39,0.0,0.0,78,0.00,,,0.00,VWS V14.01,2013-10-24 04:52:00,
2013-10-23 21:57:00,53.0,46.7,30.00,NE,39,0.0,0.0,79,0.00,,,0.00,VWS V14.01,2013-10-24 04:57:00,
2013-10-23 22:02:00,52.7,46.7,30.00,NE,39,0.0,0.0,80,0.00,,,0.00,VWS V14.01,2013-10-24 05:02:00,
2013-10-23 22:07:00,52.4,46.4,30.00,NE,39,0.0,0.0,80,0.00,,,0.00,VWS V14.01,2013-10-24 05:07:00,
2013-10-23 22:12:00,52.1,46.5,30.01,NE,39,0.0,0.0,81,0.00,,,0.00,VWS V14.01,2013-10-24 05:12:00,
2013-10-23 22:17:00,51.7,46.1,30.01,NE,39,0.0,0.0,81,0.00,,,0.00,VWS V14.01,2013-10-24 05:17:00,
2013-10-23 22:22:00,51.4,46.1,30.01,NE,39,0.0,0.0,82,0.00,,,0.00,VWS V14.01,2013-10-24 05:22:00,
2013-10-23 22:27:00,51.2,46.2,30.01,NE,39,0.0,0.0,83,0.00,,,0.00,VWS V14.01,2013-10-24 05:27:00,
2013-10-23 22:32:00,51.0,46.0,30.01,NE,39,0.0,0.0,83,0.00,,,0.00,VWS V14.01,2013-10-24 05:32:00,
2013-10-23 22:37:00,51.0,46.0,30.02,NE,39,0.0,0.0,83,0.00,,,0.00,VWS V14.01,2013-10-24 05:37:00,
2013-10-23 22:42:00,50.8,46.2,30.02,NE,39,0.0,0.0,84,0.00,,,0.00,VWS V14.01,2013-10-24 05:42:00,
2013-10-23 22:47:00,50.6,46.0,30.02,NE,39,0.0,0.0,84,0.00,,,0.00,VWS V14.01,2013-10-24 05:47:00,
2013-10-23 22:52:00,50.4,45.8,30.02,NE,39,0.0,0.0,84,0.00,,,0.00,VWS V14.01,2013-10-24 05:52:00,
2013-10-23 22:57:00,50.1,45.8,30.02,NE,39,0.0,0.0,85,0.00,,,0.00,VWS V14.01,2013-10-24 05:57:00,
2013-10-23 23:02:00,49.9,45.6,30.03,NE,39,0.0,0.0,85,0.00,,,0.00,VWS V14.01,2013-10-24 06:02:00,
2013-10-23 23:07:00,49.6,45.3,30.03,NE,39,0.0,0.0,85,0.00,,,0.00,VWS V14.01,2013-10-24 06:07:00,
2013-10-23 23:12:00,49.3,45.0,30.03,NE,39,0.0,0.0,85,0.00,,,0.00,VWS V14.01,2013-10-24 06:12:00,
2013-10-23 23:17:00,49.0,45.0,30.03,NE,39,0.0,0.0,86,0.00,,,0.00,VWS V14.01,2013-10-24 06:17:00,
2013-10-23 23:22:00,48.8,44.8,30.02,NE,39,0.0,0.0,86,0.00,,,0.00,VWS V14.01,2013-10-24 06:22:00,
2013-10-23 23:27:00,48.4,44.4,30.03,NE,39,0.0,0.0,86,0.00,,,0.00,VWS V14.01,2013-10-24 06:27:00,
2013-10-23 23:32:00,48.0,44.0,30.03,NE,39,0.0,0.0,86,0.00,,,0.00,VWS V14.01,2013-10-24 06:32:00,
2013-10-23 23:37:00,47.7,44.0,30.03,NE,39,0.0,0.0,87,0.00,,,0.00,VWS V14.01,2013-10-24 06:37:00,
2013-10-23 23:42:00,47.4,43.7,30.03,NE,39,0.0,0.0,87,0.00,,,0.00,VWS V14.01,2013-10-24 06:42:00,
2013-10-23 23:47:00,47.3,44.2,30.03,NE,39,0.0,0.0,89,0.00,,,0.00,VWS V14.01,2013-10-24 06:47:00,
2013-10-23 23:52:00,47.3,44.2,30.03,NE,39,0.0,0.0,89,0.00,,,0.00,VWS V14.01,2013-10-24 06:52:00,
2013-10-23 23:57:00,47.3,44.5,30.03,NE,39,0.0,0.0,90,0.00,,,0.00,VWS V14.01,2013-10-24 06:57:00,